sensor_id;sensor_type;location;lat;lon;timestamp;temperature;humidity
67603;DHT22;54417;47.454;18.918;2022-07-01T00:01:58;21.27;82.63
67603;DHT22;54417;47.454;18.918;2022-07-01T00:07:22;21.17;81.90
67603;DHT22;54417;47.454;18.918;2022-07-01T00:12:46;21.12;82.20
67603;DHT22;54417;47.454;18.918;2022-07-01T00:18:11;20.94;81.69
67603;DHT22;54417;47.454;18.918;2022-07-01T00:23:35;21.02;80.15
67603;DHT22;54417;47.454;18.918;2022-07-01T00:28:59;21.00;82.00
67603;DHT22;54417;47.454;18.918;2022-07-01T00:34:24;20.80;83.52
67603;DHT22;54417;47.454;18.918;2022-07-01T00:39:48;20.67;82.94
67603;DHT22;54417;47.454;18.918;2022-07-01T00:45:12;20.63;83.72
67603;DHT22;54417;47.454;18.918;2022-07-01T00:50:38;20.57;83.69
67603;DHT22;54417;47.454;18.918;2022-07-01T00:56:02;20.53;83.27
67603;DHT22;54417;47.454;18.918;2022-07-01T01:01:26;20.47;83.37
67603;DHT22;54417;47.454;18.918;2022-07-01T01:06:51;20.47;81.94
67603;DHT22;54417;47.454;18.918;2022-07-01T01:12:14;20.54;81.35
67603;DHT22;54417;47.454;18.918;2022-07-01T01:17:38;20.67;81.53
67603;DHT22;54417;47.454;18.918;2022-07-01T01:23:03;20.53;82.15
67603;DHT22;54417;47.454;18.918;2022-07-01T01:28:27;20.39;83.35
67603;DHT22;54417;47.454;18.918;2022-07-01T01:33:51;20.23;84.04
67603;DHT22;54417;47.454;18.918;2022-07-01T01:39:16;20.08;85.19
67603;DHT22;54417;47.454;18.918;2022-07-01T01:44:40;20.15;82.70
67603;DHT22;54417;47.454;18.918;2022-07-01T01:50:04;20.19;83.32
67603;DHT22;54417;47.454;18.918;2022-07-01T01:55:29;20.06;84.09
67603;DHT22;54417;47.454;18.918;2022-07-01T02:00:53;19.96;85.40
67603;DHT22;54417;47.454;18.918;2022-07-01T02:06:18;19.84;86.16
67603;DHT22;54417;47.454;18.918;2022-07-01T02:11:43;19.74;86.45
67603;DHT22;54417;47.454;18.918;2022-07-01T02:17:07;19.67;85.35
67603;DHT22;54417;47.454;18.918;2022-07-01T02:22:31;19.60;85.85
67603;DHT22;54417;47.454;18.918;2022-07-01T02:27:56;19.58;86.59
67603;DHT22;54417;47.454;18.918;2022-07-01T02:33:20;19.49;86.86
67603;DHT22;54417;47.454;18.918;2022-07-01T02:38:45;19.41;86.77
67603;DHT22;54417;47.454;18.918;2022-07-01T02:44:10;19.47;87.34
67603;DHT22;54417;47.454;18.918;2022-07-01T02:49:33;19.51;86.05
67603;DHT22;54417;47.454;18.918;2022-07-01T02:54:57;19.54;85.98
67603;DHT22;54417;47.454;18.918;2022-07-01T03:00:22;19.53;86.38
67603;DHT22;54417;47.454;18.918;2022-07-01T03:05:46;19.46;84.83
67603;DHT22;54417;47.454;18.918;2022-07-01T03:11:11;19.54;84.76
67603;DHT22;54417;47.454;18.918;2022-07-01T03:16:38;19.56;85.79
67603;DHT22;54417;47.454;18.918;2022-07-01T03:22:02;19.74;84.05
67603;DHT22;54417;47.454;18.918;2022-07-01T03:27:26;19.89;84.04
67603;DHT22;54417;47.454;18.918;2022-07-01T03:32:51;19.94;85.00
67603;DHT22;54417;47.454;18.918;2022-07-01T03:38:15;20.08;82.89
67603;DHT22;54417;47.454;18.918;2022-07-01T03:43:39;20.28;84.27
67603;DHT22;54417;47.454;18.918;2022-07-01T03:49:04;20.42;82.61
67603;DHT22;54417;47.454;18.918;2022-07-01T03:54:27;20.84;83.30
67603;DHT22;54417;47.454;18.918;2022-07-01T03:59:55;21.01;81.06
67603;DHT22;54417;47.454;18.918;2022-07-01T04:05:20;21.28;79.92
67603;DHT22;54417;47.454;18.918;2022-07-01T04:10:43;21.50;80.41
67603;DHT22;54417;47.454;18.918;2022-07-01T04:16:07;21.73;80.90
67603;DHT22;54417;47.454;18.918;2022-07-01T04:21:32;22.13;78.34
67603;DHT22;54417;47.454;18.918;2022-07-01T04:27:14;23.23;74.25
67603;DHT22;54417;47.454;18.918;2022-07-01T04:32:37;24.18;71.72
67603;DHT22;54417;47.454;18.918;2022-07-01T04:38:02;24.98;69.56
67603;DHT22;54417;47.454;18.918;2022-07-01T04:43:30;25.42;69.24
67603;DHT22;54417;47.454;18.918;2022-07-01T04:48:53;25.87;68.32
67603;DHT22;54417;47.454;18.918;2022-07-01T04:54:19;26.49;68.90
67603;DHT22;54417;47.454;18.918;2022-07-01T04:59:42;26.59;66.79
67603;DHT22;54417;47.454;18.918;2022-07-01T05:05:07;26.98;64.32
67603;DHT22;54417;47.454;18.918;2022-07-01T05:10:32;27.34;64.68
67603;DHT22;54417;47.454;18.918;2022-07-01T05:15:56;27.47;62.23
67603;DHT22;54417;47.454;18.918;2022-07-01T05:21:20;27.96;65.04
67603;DHT22;54417;47.454;18.918;2022-07-01T05:27:03;28.22;60.09
67603;DHT22;54417;47.454;18.918;2022-07-01T05:32:27;28.29;60.30
67603;DHT22;54417;47.454;18.918;2022-07-01T05:37:51;28.65;61.69
67603;DHT22;54417;47.454;18.918;2022-07-01T05:43:16;29.00;58.53
67603;DHT22;54417;47.454;18.918;2022-07-01T05:48:39;29.29;60.30
67603;DHT22;54417;47.454;18.918;2022-07-01T05:54:03;29.39;57.92
67603;DHT22;54417;47.454;18.918;2022-07-01T05:59:28;29.91;56.91
67603;DHT22;54417;47.454;18.918;2022-07-01T06:04:52;30.24;56.82
67603;DHT22;54417;47.454;18.918;2022-07-01T06:10:15;30.39;56.47
67603;DHT22;54417;47.454;18.918;2022-07-01T06:15:40;30.69;55.30
67603;DHT22;54417;47.454;18.918;2022-07-01T06:21:04;31.06;54.68
67603;DHT22;54417;47.454;18.918;2022-07-01T06:26:28;31.37;55.76
67603;DHT22;54417;47.454;18.918;2022-07-01T06:31:54;31.47;53.04
67603;DHT22;54417;47.454;18.918;2022-07-01T06:37:20;31.60;52.28
67603;DHT22;54417;47.454;18.918;2022-07-01T06:42:44;31.99;52.42
67603;DHT22;54417;47.454;18.918;2022-07-01T06:48:09;32.12;51.90
67603;DHT22;54417;47.454;18.918;2022-07-01T06:53:33;32.13;51.17
67603;DHT22;54417;47.454;18.918;2022-07-01T06:58:56;32.66;50.60
67603;DHT22;54417;47.454;18.918;2022-07-01T07:04:21;32.87;49.10
67603;DHT22;54417;47.454;18.918;2022-07-01T07:10:06;33.28;47.91
67603;DHT22;54417;47.454;18.918;2022-07-01T07:15:29;33.25;48.83
67603;DHT22;54417;47.454;18.918;2022-07-01T07:20:55;33.69;46.57
67603;DHT22;54417;47.454;18.918;2022-07-01T07:26:21;34.01;45.57
67603;DHT22;54417;47.454;18.918;2022-07-01T07:31:45;34.33;46.12
67603;DHT22;54417;47.454;18.918;2022-07-01T07:37:16;34.65;44.37
67603;DHT22;54417;47.454;18.918;2022-07-01T07:42:40;34.79;44.14
67603;DHT22;54417;47.454;18.918;2022-07-01T07:48:04;34.74;43.19
67603;DHT22;54417;47.454;18.918;2022-07-01T07:53:30;34.81;42.24
67603;DHT22;54417;47.454;18.918;2022-07-01T07:58:53;34.91;42.01
67603;DHT22;54417;47.454;18.918;2022-07-01T08:04:17;35.20;41.22
67603;DHT22;54417;47.454;18.918;2022-07-01T08:09:42;35.00;43.85
67603;DHT22;54417;47.454;18.918;2022-07-01T08:15:09;35.40;42.05
67603;DHT22;54417;47.454;18.918;2022-07-01T08:20:33;35.57;40.02
67603;DHT22;54417;47.454;18.918;2022-07-01T08:25:58;35.84;41.00
67603;DHT22;54417;47.454;18.918;2022-07-01T08:31:21;36.20;39.44
67603;DHT22;54417;47.454;18.918;2022-07-01T08:36:47;36.45;39.77
67603;DHT22;54417;47.454;18.918;2022-07-01T08:42:12;36.76;38.44
67603;DHT22;54417;47.454;18.918;2022-07-01T08:47:49;36.94;38.11
67603;DHT22;54417;47.454;18.918;2022-07-01T08:53:13;37.14;37.65
67603;DHT22;54417;47.454;18.918;2022-07-01T08:58:38;37.07;36.41
67603;DHT22;54417;47.454;18.918;2022-07-01T09:04:13;36.89;37.40
67603;DHT22;54417;47.454;18.918;2022-07-01T09:09:38;36.63;34.69
67603;DHT22;54417;47.454;18.918;2022-07-01T09:15:23;36.65;37.12
67603;DHT22;54417;47.454;18.918;2022-07-01T09:20:50;36.83;36.13
67603;DHT22;54417;47.454;18.918;2022-07-01T09:26:18;36.97;37.07
67603;DHT22;54417;47.454;18.918;2022-07-01T09:31:48;36.87;34.80
67603;DHT22;54417;47.454;18.918;2022-07-01T09:37:14;37.00;36.81
67603;DHT22;54417;47.454;18.918;2022-07-01T09:42:44;36.66;35.33
67603;DHT22;54417;47.454;18.918;2022-07-01T09:48:09;36.63;36.24
67603;DHT22;54417;47.454;18.918;2022-07-01T09:53:36;36.41;34.98
67603;DHT22;54417;47.454;18.918;2022-07-01T09:59:00;36.69;37.11
67603;DHT22;54417;47.454;18.918;2022-07-01T10:04:25;37.30;35.43
67603;DHT22;54417;47.454;18.918;2022-07-01T10:10:01;37.10;34.44
67603;DHT22;54417;47.454;18.918;2022-07-01T10:15:26;37.33;36.47
67603;DHT22;54417;47.454;18.918;2022-07-01T10:20:53;37.44;34.36
67603;DHT22;54417;47.454;18.918;2022-07-01T10:26:17;37.17;34.83
67603;DHT22;54417;47.454;18.918;2022-07-01T10:31:44;37.31;33.22
67603;DHT22;54417;47.454;18.918;2022-07-01T10:37:12;36.86;32.56
67603;DHT22;54417;47.454;18.918;2022-07-01T10:42:57;37.27;33.18
67603;DHT22;54417;47.454;18.918;2022-07-01T10:48:48;37.51;32.60
67603;DHT22;54417;47.454;18.918;2022-07-01T10:54:13;37.53;32.00
67603;DHT22;54417;47.454;18.918;2022-07-01T11:00:25;37.71;32.71
67603;DHT22;54417;47.454;18.918;2022-07-01T11:05:55;37.10;33.96
67603;DHT22;54417;47.454;18.918;2022-07-01T11:11:20;36.94;33.90
67603;DHT22;54417;47.454;18.918;2022-07-01T11:16:45;37.27;34.35
67603;DHT22;54417;47.454;18.918;2022-07-01T11:22:09;37.21;33.51
67603;DHT22;54417;47.454;18.918;2022-07-01T11:27:34;37.35;33.89
67603;DHT22;54417;47.454;18.918;2022-07-01T11:32:59;37.79;31.77
67603;DHT22;54417;47.454;18.918;2022-07-01T11:38:25;37.71;31.94
67603;DHT22;54417;47.454;18.918;2022-07-01T11:44:08;38.01;33.10
67603;DHT22;54417;47.454;18.918;2022-07-01T11:49:32;38.05;30.84
67603;DHT22;54417;47.454;18.918;2022-07-01T11:54:56;38.05;30.74
67603;DHT22;54417;47.454;18.918;2022-07-01T12:00:42;37.83;32.56
67603;DHT22;54417;47.454;18.918;2022-07-01T12:06:06;38.03;33.47
67603;DHT22;54417;47.454;18.918;2022-07-01T12:11:30;37.64;30.75
67603;DHT22;54417;47.454;18.918;2022-07-01T12:17:04;37.55;30.00
67603;DHT22;54417;47.454;18.918;2022-07-01T12:22:31;37.75;31.59
67603;DHT22;54417;47.454;18.918;2022-07-01T12:27:54;37.79;30.33
67603;DHT22;54417;47.454;18.918;2022-07-01T12:33:21;37.88;31.15
67603;DHT22;54417;47.454;18.918;2022-07-01T12:38:44;37.53;30.82
67603;DHT22;54417;47.454;18.918;2022-07-01T12:44:20;37.58;30.21
67603;DHT22;54417;47.454;18.918;2022-07-01T12:49:45;37.78;30.33
67603;DHT22;54417;47.454;18.918;2022-07-01T12:55:15;37.62;30.69
67603;DHT22;54417;47.454;18.918;2022-07-01T13:00:41;37.69;30.54
67603;DHT22;54417;47.454;18.918;2022-07-01T13:06:06;38.09;30.56
67603;DHT22;54417;47.454;18.918;2022-07-01T13:11:30;38.16;28.02
67603;DHT22;54417;47.454;18.918;2022-07-01T13:17:00;38.23;29.63
67603;DHT22;54417;47.454;18.918;2022-07-01T13:22:25;38.23;27.81
67603;DHT22;54417;47.454;18.918;2022-07-01T13:27:49;38.24;28.09
67603;DHT22;54417;47.454;18.918;2022-07-01T13:33:13;38.24;27.75
67603;DHT22;54417;47.454;18.918;2022-07-01T13:38:39;38.22;28.63
67603;DHT22;54417;47.454;18.918;2022-07-01T13:44:02;38.33;28.37
67603;DHT22;54417;47.454;18.918;2022-07-01T13:49:26;38.33;28.31
67603;DHT22;54417;47.454;18.918;2022-07-01T13:54:52;38.34;28.14
67603;DHT22;54417;47.454;18.918;2022-07-01T14:00:16;38.46;28.24
67603;DHT22;54417;47.454;18.918;2022-07-01T14:05:40;38.51;28.46
67603;DHT22;54417;47.454;18.918;2022-07-01T14:11:05;38.51;31.22
67603;DHT22;54417;47.454;18.918;2022-07-01T14:16:29;38.70;26.30
67603;DHT22;54417;47.454;18.918;2022-07-01T14:21:53;38.80;27.03
67603;DHT22;54417;47.454;18.918;2022-07-01T14:27:19;38.88;27.21
67603;DHT22;54417;47.454;18.918;2022-07-01T14:32:43;39.19;26.35
67603;DHT22;54417;47.454;18.918;2022-07-01T14:38:07;39.26;27.50
67603;DHT22;54417;47.454;18.918;2022-07-01T14:43:32;39.33;26.88
67603;DHT22;54417;47.454;18.918;2022-07-01T14:48:56;39.36;25.87
67603;DHT22;54417;47.454;18.918;2022-07-01T14:54:20;39.07;27.11
67603;DHT22;54417;47.454;18.918;2022-07-01T14:59:45;39.01;27.91
67603;DHT22;54417;47.454;18.918;2022-07-01T15:05:08;39.42;27.20
67603;DHT22;54417;47.454;18.918;2022-07-01T15:10:32;39.67;26.46
67603;DHT22;54417;47.454;18.918;2022-07-01T15:15:58;39.38;28.40
67603;DHT22;54417;47.454;18.918;2022-07-01T15:21:22;39.47;27.39
67603;DHT22;54417;47.454;18.918;2022-07-01T15:26:48;39.43;28.70
67603;DHT22;54417;47.454;18.918;2022-07-01T15:32:16;39.43;28.22
67603;DHT22;54417;47.454;18.918;2022-07-01T15:37:40;39.19;29.65
67603;DHT22;54417;47.454;18.918;2022-07-01T15:43:06;38.71;29.51
67603;DHT22;54417;47.454;18.918;2022-07-01T15:48:31;38.26;28.84
67603;DHT22;54417;47.454;18.918;2022-07-01T15:53:55;37.72;31.94
67603;DHT22;54417;47.454;18.918;2022-07-01T15:59:20;37.17;31.93
67603;DHT22;54417;47.454;18.918;2022-07-01T16:04:46;36.97;33.21
67603;DHT22;54417;47.454;18.918;2022-07-01T16:10:29;37.16;33.35
67603;DHT22;54417;47.454;18.918;2022-07-01T16:15:53;36.93;32.18
67603;DHT22;54417;47.454;18.918;2022-07-01T16:21:19;36.62;33.03
67603;DHT22;54417;47.454;18.918;2022-07-01T16:26:43;36.31;33.45
67603;DHT22;54417;47.454;18.918;2022-07-01T16:32:08;36.36;33.75
67603;DHT22;54417;47.454;18.918;2022-07-01T16:37:35;36.11;34.38
67603;DHT22;54417;47.454;18.918;2022-07-01T16:43:05;35.53;36.53
67603;DHT22;54417;47.454;18.918;2022-07-01T16:48:32;35.09;37.78
67603;DHT22;54417;47.454;18.918;2022-07-01T16:53:58;34.75;39.52
67603;DHT22;54417;47.454;18.918;2022-07-01T16:59:22;34.62;37.13
67603;DHT22;54417;47.454;18.918;2022-07-01T17:04:46;34.31;38.23
67603;DHT22;54417;47.454;18.918;2022-07-01T17:10:13;34.25;38.93
67603;DHT22;54417;47.454;18.918;2022-07-01T17:15:38;34.19;40.35
67603;DHT22;54417;47.454;18.918;2022-07-01T17:21:03;33.82;41.93
67603;DHT22;54417;47.454;18.918;2022-07-01T17:26:30;33.49;43.71
67603;DHT22;54417;47.454;18.918;2022-07-01T17:31:57;33.32;43.28
67603;DHT22;54417;47.454;18.918;2022-07-01T17:37:21;32.87;44.55
67603;DHT22;54417;47.454;18.918;2022-07-01T17:42:49;32.59;45.27
67603;DHT22;54417;47.454;18.918;2022-07-01T17:48:15;32.47;46.69
67603;DHT22;54417;47.454;18.918;2022-07-01T17:53:39;32.19;47.34
67603;DHT22;54417;47.454;18.918;2022-07-01T17:59:05;31.88;49.72
67603;DHT22;54417;47.454;18.918;2022-07-01T18:04:30;31.68;45.62
67603;DHT22;54417;47.454;18.918;2022-07-01T18:09:54;31.40;47.29
67603;DHT22;54417;47.454;18.918;2022-07-01T18:15:20;31.19;46.90
67603;DHT22;54417;47.454;18.918;2022-07-01T18:20:49;30.97;51.85
67603;DHT22;54417;47.454;18.918;2022-07-01T18:26:17;30.68;51.22
67603;DHT22;54417;47.454;18.918;2022-07-01T18:31:44;30.56;49.14
67603;DHT22;54417;47.454;18.918;2022-07-01T18:37:17;30.41;49.75
67603;DHT22;54417;47.454;18.918;2022-07-01T18:42:43;30.23;47.07
67603;DHT22;54417;47.454;18.918;2022-07-01T18:48:09;30.13;53.68
67603;DHT22;54417;47.454;18.918;2022-07-01T18:53:32;29.63;54.87
67603;DHT22;54417;47.454;18.918;2022-07-01T18:59:01;29.28;57.30
67603;DHT22;54417;47.454;18.918;2022-07-01T19:04:26;29.14;53.82
67603;DHT22;54417;47.454;18.918;2022-07-01T19:09:50;28.91;55.45
67603;DHT22;54417;47.454;18.918;2022-07-01T19:15:14;28.77;52.83
67603;DHT22;54417;47.454;18.918;2022-07-01T19:20:39;28.73;54.20
67603;DHT22;54417;47.454;18.918;2022-07-01T19:26:03;28.53;53.57
67603;DHT22;54417;47.454;18.918;2022-07-01T19:31:27;28.44;56.88
67603;DHT22;54417;47.454;18.918;2022-07-01T19:36:54;28.32;53.76
67603;DHT22;54417;47.454;18.918;2022-07-01T19:42:21;28.10;58.44
67603;DHT22;54417;47.454;18.918;2022-07-01T19:47:45;27.94;58.00
67603;DHT22;54417;47.454;18.918;2022-07-01T19:53:10;28.01;55.19
67603;DHT22;54417;47.454;18.918;2022-07-01T19:58:34;28.09;55.40
67603;DHT22;54417;47.454;18.918;2022-07-01T20:03:58;28.65;49.33
67603;DHT22;54417;47.454;18.918;2022-07-01T20:09:23;28.61;50.22
67603;DHT22;54417;47.454;18.918;2022-07-01T20:14:47;27.54;53.17
67603;DHT22;54417;47.454;18.918;2022-07-01T20:20:12;27.14;54.40
67603;DHT22;54417;47.454;18.918;2022-07-01T20:25:37;26.63;55.64
67603;DHT22;54417;47.454;18.918;2022-07-01T20:31:02;26.00;56.92
67603;DHT22;54417;47.454;18.918;2022-07-01T20:36:26;25.53;58.14
67603;DHT22;54417;47.454;18.918;2022-07-01T20:41:51;25.03;59.55
67603;DHT22;54417;47.454;18.918;2022-07-01T20:47:15;24.81;60.40
67603;DHT22;54417;47.454;18.918;2022-07-01T20:52:50;24.57;61.50
67603;DHT22;54417;47.454;18.918;2022-07-01T20:58:15;24.36;62.41
67603;DHT22;54417;47.454;18.918;2022-07-01T21:03:39;24.09;63.54
67603;DHT22;54417;47.454;18.918;2022-07-01T21:09:03;23.91;64.54
67603;DHT22;54417;47.454;18.918;2022-07-01T21:14:29;23.67;65.45
67603;DHT22;54417;47.454;18.918;2022-07-01T21:19:53;23.58;66.03
67603;DHT22;54417;47.454;18.918;2022-07-01T21:25:19;23.47;66.65
67603;DHT22;54417;47.454;18.918;2022-07-01T21:30:44;23.44;66.86
67603;DHT22;54417;47.454;18.918;2022-07-01T21:36:08;23.36;67.15
67603;DHT22;54417;47.454;18.918;2022-07-01T21:41:34;23.36;67.13
67603;DHT22;54417;47.454;18.918;2022-07-01T21:47:00;23.36;67.18
67603;DHT22;54417;47.454;18.918;2022-07-01T21:52:28;23.28;67.30
67603;DHT22;54417;47.454;18.918;2022-07-01T21:57:53;23.31;66.99
67603;DHT22;54417;47.454;18.918;2022-07-01T22:03:20;23.36;66.93
67603;DHT22;54417;47.454;18.918;2022-07-01T22:08:49;23.34;66.82
67603;DHT22;54417;47.454;18.918;2022-07-01T22:14:18;23.23;66.83
67603;DHT22;54417;47.454;18.918;2022-07-01T22:19:45;23.26;66.39
67603;DHT22;54417;47.454;18.918;2022-07-01T22:25:14;23.22;66.44
67603;DHT22;54417;47.454;18.918;2022-07-01T22:30:40;23.23;66.08
67603;DHT22;54417;47.454;18.918;2022-07-01T22:36:07;23.24;65.85
67603;DHT22;54417;47.454;18.918;2022-07-01T22:41:33;23.17;66.00
67603;DHT22;54417;47.454;18.918;2022-07-01T22:47:05;23.04;66.13
67603;DHT22;54417;47.454;18.918;2022-07-01T22:52:36;23.06;66.13
67603;DHT22;54417;47.454;18.918;2022-07-01T22:58:09;22.99;66.36
67603;DHT22;54417;47.454;18.918;2022-07-01T23:03:35;22.96;66.12
67603;DHT22;54417;47.454;18.918;2022-07-01T23:09:04;22.99;66.07
67603;DHT22;54417;47.454;18.918;2022-07-01T23:14:29;22.88;66.44
67603;DHT22;54417;47.454;18.918;2022-07-01T23:20:19;22.77;66.74
67603;DHT22;54417;47.454;18.918;2022-07-01T23:25:47;22.68;67.32
67603;DHT22;54417;47.454;18.918;2022-07-01T23:31:11;22.61;67.74
67603;DHT22;54417;47.454;18.918;2022-07-01T23:36:38;22.55;67.93
67603;DHT22;54417;47.454;18.918;2022-07-01T23:42:05;22.49;68.25
67603;DHT22;54417;47.454;18.918;2022-07-01T23:47:29;22.56;67.97
67603;DHT22;54417;47.454;18.918;2022-07-01T23:52:55;22.41;68.49
67603;DHT22;54417;47.454;18.918;2022-07-01T23:58:21;22.33;68.99
